Time;durP1;ratioP1;P1;durP2;ratioP2;P2;SDS_P1;SDS_P2;PMS_P1;PMS_P2;Temp;Humidity;BMP_temperature;BMP_pressure;BME280_temperature;BME280_humidity;BME280_pressure;Samples;Min_cycle;Max_cycle;Signal;HPM_P1;HPM_P2
2023/04/23 00:01:26;;;;;;;3.70;3.25;;;;;;;22.01;45.98;99739.63;4540557;28;20028;-60
2023/04/23 00:03:37;;;;;;;4.07;3.67;;;;;;;22.01;45.78;99734.69;4526546;28;20111;-60
2023/04/23 00:05:51;;;;;;;3.90;3.60;;;;;;;22.01;45.45;99734.69;4539356;28;20306;-60
2023/04/23 00:08:02;;;;;;;3.67;3.38;;;;;;;21.99;45.70;99728.53;4542182;28;20024;-60
2023/04/23 00:10:13;;;;;;;4.45;4.05;;;;;;;22.01;45.69;99736.75;4539529;28;20110;-60
2023/04/23 00:12:23;;;;;;;4.22;3.83;;;;;;;21.98;45.71;99729.75;4539867;28;20052;-60
2023/04/23 00:14:34;;;;;;;4.35;3.95;;;;;;;22.00;45.30;99738.81;4522719;28;20042;-60
2023/04/23 00:16:45;;;;;;;4.25;3.85;;;;;;;22.01;45.36;99739.63;4541983;28;20095;-60
2023/04/23 00:18:55;;;;;;;4.20;3.80;;;;;;;22.00;45.50;99733.06;4542228;28;20529;-60
2023/04/23 00:21:08;;;;;;;4.07;3.70;;;;;;;21.97;45.31;99727.28;4542553;28;20016;-60
2023/04/23 00:23:18;;;;;;;4.72;4.32;;;;;;;21.99;45.69;99740.00;4541506;28;20118;-62
2023/04/23 00:25:28;;;;;;;4.38;3.97;;;;;;;21.97;45.82;99733.84;4542285;28;20037;-60
2023/04/23 00:27:39;;;;;;;4.30;3.90;;;;;;;21.99;45.72;99737.13;4543310;28;20029;-61
2023/04/23 00:29:50;;;;;;;4.95;4.50;;;;;;;21.99;45.55;99742.88;4522535;28;20037;-60
2023/04/23 00:32:02;;;;;;;4.60;4.20;;;;;;;21.97;45.37;99736.72;4539637;28;20032;-61
2023/04/23 00:34:12;;;;;;;4.80;4.40;;;;;;;21.97;45.40;99739.59;4538677;28;20052;-61
2023/04/23 00:36:23;;;;;;;4.60;4.20;;;;;;;21.98;45.58;99735.50;4531629;28;20037;-61
2023/04/23 00:38:33;;;;;;;5.10;4.60;;;;;;;21.98;45.49;99741.25;4542308;28;20374;-61
2023/04/23 00:40:43;;;;;;;4.90;4.45;;;;;;;21.98;45.37;99737.53;4540971;28;20112;-61
2023/04/23 00:42:55;;;;;;;5.35;4.85;;;;;;;21.99;45.26;99742.09;4523452;28;20069;-60
2023/04/23 00:45:07;;;;;;;5.20;4.70;;;;;;;21.98;45.38;99741.25;4544658;28;20024;-61
2023/04/23 00:47:19;;;;;;;5.57;5.07;;;;;;;21.97;45.48;99736.72;4522908;28;20374;-61
2023/04/23 00:49:30;;;;;;;5.53;5.03;;;;;;;21.97;45.23;99744.53;4544440;28;20144;-60
2023/04/23 00:51:40;;;;;;;4.57;4.18;;;;;;;21.77;44.12;99708.66;4534068;28;20049;-60
2023/04/23 00:53:51;;;;;;;4.40;4.00;;;;;;;21.95;44.26;99747.78;4515662;28;20351;-60
2023/04/23 00:56:04;;;;;;;5.32;4.82;;;;;;;21.97;44.35;99745.34;4524866;28;20029;-60
2023/04/23 00:58:14;;;;;;;5.57;5.07;;;;;;;21.97;44.31;99751.09;4540626;28;20175;-61
2023/04/23 01:00:25;;;;;;;4.63;4.20;;;;;;;21.98;43.72;99749.88;4534640;28;20104;-60
2023/04/23 01:02:36;;;;;;;2.47;2.25;;;;;;;22.03;42.62;99754.41;4532160;28;20123;-60
2023/04/23 01:04:50;;;;;;;2.38;2.17;;;;;;;22.02;42.75;99742.09;4543109;28;20477;-61
2023/04/23 01:07:01;;;;;;;2.28;2.08;;;;;;;22.00;42.28;99744.56;4524197;28;20037;-61
2023/04/23 01:09:12;;;;;;;2.42;2.22;;;;;;;22.07;42.08;99750.34;4533693;28;20043;-61
2023/04/23 01:11:23;;;;;;;2.90;2.70;;;;;;;22.08;42.43;99745.44;4543105;28;20035;-61
2023/04/23 01:13:34;;;;;;;2.70;2.50;;;;;;;22.09;42.39;99744.19;4544188;28;20037;-61
2023/04/23 01:15:44;;;;;;;4.07;2.83;;;;;;;22.13;41.98;99763.16;4526019;28;20132;-60
2023/04/23 01:17:57;;;;;;;3.00;2.70;;;;;;;22.13;42.04;99759.44;4543303;28;20534;-60
2023/04/23 01:20:08;;;;;;;3.40;3.10;;;;;;;22.12;41.84;99764.34;4544084;28;20163;-60
2023/04/23 01:22:19;;;;;;;3.65;3.13;;;;;;;22.12;41.90;99752.84;4543541;28;20032;-61
2023/04/23 01:24:31;;;;;;;3.38;3.08;;;;;;;22.13;42.07;99756.56;4533219;28;20036;-60
2023/04/23 01:26:41;;;;;;;3.65;3.17;;;;;;;22.15;41.75;99760.69;4534652;28;20047;-60
2023/04/23 01:28:53;;;;;;;3.45;2.70;;;;;;;22.16;41.65;99755.78;4545092;28;20824;-60
2023/04/23 01:31:03;;;;;;;3.45;3.15;;;;;;;22.15;41.85;99759.88;4527012;28;20600;-60
2023/04/23 01:33:15;;;;;;;3.80;3.38;;;;;;;22.14;41.71;99761.91;4517144;28;20083;-60
2023/04/23 01:35:25;;;;;;;3.30;3.00;;;;;;;22.17;41.97;99766.88;4524513;28;20620;-60
2023/04/23 01:37:37;;;;;;;3.60;3.30;;;;;;;22.17;41.46;99777.53;4527727;28;20059;-60
2023/04/23 01:39:48;;;;;;;3.55;3.25;;;;;;;22.16;41.50;99768.09;4542621;28;20737;-61
2023/04/23 01:41:59;;;;;;;3.40;3.10;;;;;;;22.11;41.70;99771.34;4544789;28;20260;-61
2023/04/23 01:44:09;;;;;;;3.28;3.00;;;;;;;22.17;41.86;99778.34;4542629;28;20991;-61
2023/04/23 01:46:20;;;;;;;4.00;3.50;;;;;;;22.18;41.56;99780.00;4524122;28;20037;-60
2023/04/23 01:48:31;;;;;;;3.50;3.20;;;;;;;22.15;41.45;99775.06;4524564;28;20069;-60
2023/04/23 01:50:42;;;;;;;3.33;3.03;;;;;;;22.19;41.51;99769.34;4524885;28;20117;-61
2023/04/23 01:52:53;;;;;;;3.50;3.20;;;;;;;22.18;41.04;99774.25;4540673;28;20033;-60
2023/04/23 01:55:03;;;;;;;3.53;3.22;;;;;;;22.18;41.30;99774.25;4544074;28;20028;-60
2023/04/23 01:57:14;;;;;;;3.60;3.30;;;;;;;22.21;40.96;99770.56;4533749;28;20051;-60
2023/04/23 01:59:24;;;;;;;3.58;3.28;;;;;;;22.20;41.30;99763.19;4523971;28;20022;-60
2023/04/23 02:01:45;;;;;;;3.80;3.40;;;;;;;22.21;41.32;99766.91;4533892;28;20501;-60
2023/04/23 02:03:57;;;;;;;3.65;3.35;;;;;;;22.22;41.07;99774.28;4542888;28;20235;-60
2023/04/23 02:06:08;;;;;;;3.70;3.40;;;;;;;22.19;41.41;99770.19;4541692;28;20029;-60
2023/04/23 02:08:19;;;;;;;4.15;3.50;;;;;;;22.19;41.25;99767.31;4534581;28;20102;-61
2023/04/23 02:10:30;;;;;;;4.00;3.40;;;;;;;22.19;41.39;99766.47;4506943;28;20092;-60
2023/04/23 02:12:41;;;;;;;4.10;3.70;;;;;;;22.15;40.95;99769.31;4543832;28;20071;-61
2023/04/23 02:14:53;;;;;;;4.03;3.63;;;;;;;22.17;41.32;99772.63;4543576;28;20032;-60
2023/04/23 02:17:03;;;;;;;4.15;3.75;;;;;;;22.15;41.34;99777.13;4524800;28;20037;-60
2023/04/23 02:19:15;;;;;;;4.13;3.83;;;;;;;22.14;41.17;99776.28;4525093;28;20125;-59
2023/04/23 02:21:26;;;;;;;4.13;3.72;;;;;;;22.12;41.12;99775.00;4534080;28;20842;-60
2023/04/23 02:23:37;;;;;;;4.03;3.65;;;;;;;22.12;41.47;99778.72;4528190;28;20250;-60
2023/04/23 02:25:47;;;;;;;4.20;3.80;;;;;;;22.12;41.28;99778.72;4506984;28;20139;-60
2023/04/23 02:28:00;;;;;;;4.38;3.97;;;;;;;22.14;41.43;99770.53;4543170;28;20060;-60
2023/04/23 02:30:11;;;;;;;4.45;4.05;;;;;;;22.16;40.97;99773.84;4533032;28;20029;-60
2023/04/23 02:32:21;;;;;;;4.30;3.90;;;;;;;22.15;41.00;99769.31;4543017;28;20041;-61
2023/04/23 02:34:32;;;;;;;4.20;3.80;;;;;;;22.17;40.62;99769.75;4545788;28;20045;-60
2023/04/23 02:36:43;;;;;;;4.20;3.80;;;;;;;22.18;40.92;99780.00;4542077;28;20152;-60
2023/04/23 02:38:53;;;;;;;4.32;3.92;;;;;;;22.19;41.00;99775.94;4530176;28;20094;-60
2023/04/23 02:41:04;;;;;;;4.40;3.80;;;;;;;22.17;40.94;99772.63;4543547;28;20068;-60
2023/04/23 02:43:14;;;;;;;3.92;3.58;;;;;;;22.18;40.56;99768.50;4544650;28;20038;-59
2023/04/23 02:45:25;;;;;;;3.83;3.53;;;;;;;22.19;40.95;99781.69;4535462;28;20040;-60
2023/04/23 02:47:35;;;;;;;3.92;3.53;;;;;;;22.16;40.49;99782.47;4532870;28;20076;-59
2023/04/23 02:49:46;;;;;;;3.97;3.55;;;;;;;22.19;40.83;99778.81;4542237;28;20207;-60
2023/04/23 02:51:56;;;;;;;4.13;3.72;;;;;;;22.19;40.55;99777.97;4541591;28;20036;-59
2023/04/23 02:54:08;;;;;;;4.35;3.95;;;;;;;22.19;40.99;99786.59;4532811;28;20234;-60
2023/04/23 02:56:18;;;;;;;3.90;3.60;;;;;;;22.18;40.53;99782.88;4529132;28;20040;-61
2023/04/23 02:58:29;;;;;;;4.10;3.70;;;;;;;22.18;40.92;99785.75;4541494;28;20064;-60
2023/04/23 03:00:42;;;;;;;4.57;4.03;;;;;;;22.18;40.74;99782.88;4526036;28;20032;-60
2023/04/23 03:02:52;;;;;;;3.95;3.65;;;;;;;22.12;40.82;99775.00;4523629;28;20652;-60
2023/04/23 03:05:04;;;;;;;3.92;3.63;;;;;;;22.20;40.93;99782.47;4542935;28;20032;-60
2023/04/23 03:07:16;;;;;;;3.65;3.35;;;;;;;22.20;40.86;99788.22;4531478;28;20048;-60
2023/04/23 03:09:26;;;;;;;4.07;3.67;;;;;;;22.20;40.84;99791.09;4522578;28;20037;-60
2023/04/23 03:11:37;;;;;;;3.70;3.40;;;;;;;22.20;40.87;99800.56;4530835;28;20039;-60
2023/04/23 03:13:47;;;;;;;3.90;3.55;;;;;;;22.19;40.87;99798.91;4522802;28;20033;-60
2023/04/23 03:15:58;;;;;;;3.83;3.50;;;;;;;22.20;40.90;99800.56;4533224;28;20048;-60
2023/04/23 03:18:10;;;;;;;3.95;3.60;;;;;;;22.20;40.68;99796.84;4531955;28;20028;-60
2023/04/23 03:20:20;;;;;;;3.80;3.50;;;;;;;22.20;40.50;99809.19;4523311;28;20033;-59
2023/04/23 03:22:34;;;;;;;3.90;3.60;;;;;;;22.19;40.99;99796.03;4541638;28;20043;-60
2023/04/23 03:24:45;;;;;;;3.38;3.08;;;;;;;22.20;40.95;99797.69;4526088;28;20040;-60
2023/04/23 03:26:57;;;;;;;3.58;3.28;;;;;;;22.20;40.82;99791.94;4543667;28;20043;-60
2023/04/23 03:29:07;;;;;;;3.75;3.40;;;;;;;22.22;40.49;99803.03;4533025;28;20021;-59
2023/04/23 03:31:18;;;;;;;4.00;3.60;;;;;;;22.19;40.87;99807.53;4523496;28;20029;-60
2023/04/23 03:33:28;;;;;;;3.60;3.28;;;;;;;22.20;40.75;99802.59;4524707;28;20038;-60
2023/04/23 03:35:39;;;;;;;3.30;3.00;;;;;;;22.19;40.94;99798.91;4523074;28;20027;-60
2023/04/23 03:37:54;;;;;;;3.58;3.28;;;;;;;22.20;40.48;99797.69;4533747;28;20044;-59
2023/04/23 03:40:08;;;;;;;3.75;3.40;;;;;;;22.21;40.55;99801.41;4523728;28;20040;-60
2023/04/23 03:42:22;;;;;;;3.92;3.60;;;;;;;22.14;40.65;99790.66;4524772;28;20040;-60
2023/04/23 03:44:33;;;;;;;3.30;3.00;;;;;;;22.21;40.75;99799.31;4523392;28;20036;-59
2023/04/23 03:46:44;;;;;;;3.20;2.90;;;;;;;22.20;40.90;99800.56;4543316;28;20666;-60
2023/04/23 03:48:54;;;;;;;3.60;3.30;;;;;;;22.20;41.01;99803.44;4533125;28;20033;-60
2023/04/23 03:51:10;;;;;;;3.40;3.10;;;;;;;22.19;40.51;99801.78;4541610;28;20560;-60
2023/04/23 03:53:27;;;;;;;3.40;3.10;;;;;;;22.20;40.59;99799.72;4509318;28;20577;-60
2023/04/23 03:55:56;;;;;;;3.25;2.95;;;;;;;22.20;41.38;99797.69;4543730;28;20060;-60
2023/04/23 03:58:08;;;;;;;3.55;3.25;;;;;;;22.19;40.99;99790.28;4531871;28;20033;-60
2023/04/23 04:00:27;;;;;;;3.47;3.17;;;;;;;22.19;40.53;99793.16;4522238;28;20184;-60
2023/04/23 04:02:38;;;;;;;3.30;3.00;;;;;;;22.17;40.73;99794.78;4523743;28;20188;-60
2023/04/23 04:04:50;;;;;;;3.22;2.92;;;;;;;22.18;40.85;99791.50;4542209;28;20029;-60
2023/04/23 04:07:00;;;;;;;3.00;2.80;;;;;;;22.15;40.88;99780.81;4540640;28;20043;-60
2023/04/23 04:09:11;;;;;;;3.38;3.08;;;;;;;22.20;40.95;99785.34;4525944;28;20424;-60
2023/04/23 04:11:21;;;;;;;3.42;3.13;;;;;;;22.16;41.01;99785.34;4542588;28;20021;-60
2023/04/23 04:13:32;;;;;;;2.90;2.70;;;;;;;22.18;40.62;99784.94;4534287;28;20037;-60
2023/04/23 04:15:42;;;;;;;2.97;2.70;;;;;;;22.18;41.31;99788.63;4543664;28;20037;-60
2023/04/23 04:17:53;;;;;;;3.20;2.90;;;;;;;22.17;40.69;99780.41;4544940;28;20049;-60
2023/04/23 04:20:03;;;;;;;3.10;2.80;;;;;;;22.17;41.04;99784.09;4526623;28;20056;-60
2023/04/23 04:22:14;;;;;;;3.00;2.70;;;;;;;22.18;41.94;99794.38;4542690;28;20033;-60
2023/04/23 04:24:26;;;;;;;3.42;3.13;;;;;;;22.15;41.03;99775.06;4543087;28;20113;-60
2023/04/23 04:26:36;;;;;;;3.25;2.95;;;;;;;22.17;40.64;99789.84;4523623;28;20549;-60
2023/04/23 04:28:47;;;;;;;3.40;3.10;;;;;;;22.16;41.08;99788.22;4523195;28;20272;-60
2023/04/23 04:30:57;;;;;;;3.00;2.80;;;;;;;22.17;41.11;99780.41;4543703;28;20473;-60
2023/04/23 04:33:07;;;;;;;3.00;2.70;;;;;;;22.16;41.44;99782.47;4543104;28;20563;-60
2023/04/23 04:35:18;;;;;;;3.47;2.92;;;;;;;22.16;41.12;99779.59;4542467;28;20048;-59
2023/04/23 04:37:28;;;;;;;3.35;3.05;;;;;;;22.16;41.18;99779.59;4544085;28;20406;-60
2023/04/23 04:39:39;;;;;;;3.35;3.05;;;;;;;22.16;41.12;99778.75;4544591;28;20075;-60
2023/04/23 04:41:49;;;;;;;3.15;2.85;;;;;;;22.09;41.10;99776.66;4544231;28;20036;-60
2023/04/23 04:44:00;;;;;;;3.50;2.95;;;;;;;22.16;40.94;99788.22;4525128;28;20099;-60
2023/04/23 04:46:10;;;;;;;3.25;2.97;;;;;;;22.15;41.03;99783.69;4543989;28;20500;-60
2023/04/23 04:48:21;;;;;;;3.08;2.80;;;;;;;22.13;41.01;99771.78;4542741;28;20094;-60
2023/04/23 04:50:31;;;;;;;3.05;2.83;;;;;;;22.15;40.66;99785.75;4543632;28;20041;-60
2023/04/23 04:52:41;;;;;;;2.95;2.65;;;;;;;22.15;40.87;99777.94;4543870;28;20029;-60
2023/04/23 04:54:52;;;;;;;3.42;3.13;;;;;;;22.11;40.73;99768.47;4545596;28;20037;-60
2023/04/23 04:57:02;;;;;;;3.25;2.75;;;;;;;22.15;40.86;99785.75;4531862;28;20041;-60
2023/04/23 04:59:13;;;;;;;3.08;2.78;;;;;;;22.14;41.04;99790.66;4525987;28;20039;-60
2023/04/23 05:01:25;;;;;;;4.05;3.13;;;;;;;22.12;40.90;99790.22;4541314;28;20060;-60
2023/04/23 05:03:36;;;;;;;3.75;3.28;;;;;;;22.09;41.07;99785.28;4542076;28;20036;-60
2023/04/23 05:05:49;;;;;;;3.25;2.72;;;;;;;22.13;41.85;99794.75;4527709;28;20044;-60
2023/04/23 05:08:02;;;;;;;3.88;2.95;;;;;;;22.14;41.28;99784.06;4542469;28;20032;-60
2023/04/23 05:10:14;;;;;;;3.75;3.35;;;;;;;21.91;44.96;99787.13;4542254;28;20020;-60
2023/04/23 05:12:24;;;;;;;7.25;6.55;;;;;;;21.80;41.17;99788.28;4525490;28;21138;-60
2023/04/23 05:14:35;;;;;;;7.28;6.57;;;;;;;21.78;40.33;99788.69;4544076;28;20099;-60
2023/04/23 05:16:45;;;;;;;7.28;6.57;;;;;;;21.76;39.31;99785.38;4542837;28;20495;-60
2023/04/23 05:18:56;;;;;;;7.88;7.07;;;;;;;21.73;39.58;99785.28;4543770;28;20041;-60
2023/04/23 05:21:06;;;;;;;7.63;6.93;;;;;;;21.72;39.66;99789.38;4544137;28;20032;-59
2023/04/23 05:23:17;;;;;;;7.78;6.97;;;;;;;21.71;39.43;99781.97;4540880;28;20040;-60
2023/04/23 05:25:29;;;;;;;7.97;7.18;;;;;;;21.70;40.27;99791.81;4542449;28;20054;-60
2023/04/23 05:27:40;;;;;;;8.52;7.70;;;;;;;21.69;40.09;99785.25;4541675;28;20056;-60
2023/04/23 05:29:50;;;;;;;8.40;7.50;;;;;;;21.69;40.29;99781.56;4544510;28;20064;-60
2023/04/23 05:32:01;;;;;;;8.57;7.70;;;;;;;21.68;40.69;99777.03;4542125;28;20752;-60
2023/04/23 05:34:11;;;;;;;8.15;7.35;;;;;;;21.65;40.83;99780.69;4534460;28;20029;-60
2023/04/23 05:36:22;;;;;;;8.20;7.40;;;;;;;21.68;40.65;99782.75;4542101;28;20095;-60
2023/04/23 05:38:32;;;;;;;8.13;7.32;;;;;;;21.67;40.50;99787.72;4541924;28;20041;-60
2023/04/23 05:40:42;;;;;;;8.15;7.20;;;;;;;21.67;41.00;99784.84;4543566;28;20198;-60
2023/04/23 05:42:53;;;;;;;7.53;6.72;;;;;;;21.64;41.06;99777.00;4545499;28;20067;-60
2023/04/23 05:45:05;;;;;;;7.75;6.95;;;;;;;21.66;41.49;99773.75;4543572;28;20800;-60
2023/04/23 05:47:15;;;;;;;7.53;6.82;;;;;;;21.68;41.35;99774.97;4544035;28;20133;-60
2023/04/23 05:49:26;;;;;;;7.88;7.07;;;;;;;21.68;41.63;99777.84;4543789;28;20080;-60
2023/04/23 05:51:36;;;;;;;7.80;7.00;;;;;;;21.68;41.82;99772.13;4542363;28;20056;-62
2023/04/23 05:53:46;;;;;;;7.50;6.70;;;;;;;21.69;41.69;99778.69;4543681;28;20383;-60
2023/04/23 05:55:57;;;;;;;7.57;6.80;;;;;;;21.69;41.94;99772.94;4543485;28;20045;-60
2023/04/23 05:58:07;;;;;;;7.57;6.80;;;;;;;21.69;41.59;99776.63;4541000;28;20032;-60
2023/04/23 06:00:18;;;;;;;7.50;6.70;;;;;;;21.68;41.99;99769.25;4535177;28;20324;-61
2023/04/23 06:02:28;;;;;;;6.75;6.05;;;;;;;21.68;41.66;99772.13;4540829;28;20138;-60
2023/04/23 06:04:38;;;;;;;7.30;6.60;;;;;;;21.71;41.94;99777.06;4541554;28;20044;-60
2023/04/23 06:06:49;;;;;;;6.68;6.07;;;;;;;21.70;42.27;99766.81;4543476;28;20052;-60
2023/04/23 06:08:59;;;;;;;6.80;6.18;;;;;;;21.68;41.99;99760.63;4524835;28;20493;-60
2023/04/23 06:11:10;;;;;;;7.05;6.35;;;;;;;21.68;41.93;99772.13;4524234;28;20044;-60
2023/04/23 06:13:20;;;;;;;2.30;2.10;;;;;;;21.82;43.38;99760.78;4541832;28;20047;-60
2023/04/23 06:15:31;;;;;;;4.72;4.22;;;;;;;21.78;41.93;99773.47;4523075;28;20060;-60
2023/04/23 06:17:41;;;;;;;4.60;4.20;;;;;;;21.85;42.30;99760.00;4541441;28;20037;-60
2023/04/23 06:19:52;;;;;;;4.10;3.70;;;;;;;21.81;42.51;99761.19;4541353;28;20044;-60
2023/04/23 06:22:02;;;;;;;5.20;4.70;;;;;;;21.85;42.06;99767.81;4523736;28;20138;-60
2023/04/23 06:24:12;;;;;;;3.67;3.38;;;;;;;21.97;41.72;99765.47;4541622;28;20074;-61
2023/04/23 06:26:23;;;;;;;1.65;1.55;;;;;;;22.04;45.04;99756.09;4522007;28;20564;-60
2023/04/23 06:28:35;;;;;;;1.67;1.58;;;;;;;22.07;44.67;99756.09;4525414;28;20064;-60
2023/04/23 06:31:21;;;;;;;1.40;1.30;;;;;;;22.12;44.81;99758.59;4461821;28;20043;-60
2023/04/23 06:33:33;;;;;;;1.70;1.60;;;;;;;22.15;44.97;99752.06;4493880;28;20037;-60
2023/04/23 06:35:45;;;;;;;1.42;1.33;;;;;;;22.15;44.83;99757.00;4531000;28;20149;-60
2023/04/23 06:37:55;;;;;;;1.60;1.50;;;;;;;22.18;44.70;99754.13;4533420;28;20044;-60
2023/04/23 06:40:06;;;;;;;1.30;1.20;;;;;;;22.19;44.57;99752.09;4542289;28;20029;-60
2023/04/23 06:42:17;;;;;;;1.50;1.40;;;;;;;22.20;45.09;99745.94;4540465;28;21094;-60
2023/04/23 06:44:33;;;;;;;1.55;1.45;;;;;;;22.19;44.61;99749.22;4530717;28;20278;-61
2023/04/23 06:46:43;;;;;;;1.70;1.58;;;;;;;22.18;41.73;99745.50;4523795;28;20091;-60
2023/04/23 06:48:54;;;;;;;1.50;1.40;;;;;;;22.17;41.43;99745.91;4541144;28;20120;-60
2023/04/23 06:51:05;;;;;;;1.60;1.50;;;;;;;22.19;42.05;99749.22;4543098;28;20048;-61
2023/04/23 06:53:15;;;;;;;1.58;1.48;;;;;;;22.05;41.49;99729.81;4542222;28;20048;-60
2023/04/23 06:55:27;;;;;;;1.40;1.30;;;;;;;22.19;41.32;99746.34;4541927;28;20049;-60
2023/04/23 06:57:38;;;;;;;1.50;1.40;;;;;;;22.14;41.37;99735.22;4541569;28;20033;-60
2023/04/23 06:59:48;;;;;;;1.60;1.50;;;;;;;22.19;41.06;99746.34;4541679;28;20569;-60
2023/04/23 07:01:59;;;;;;;1.80;1.70;;;;;;;22.20;41.20;99757.44;4522620;28;20038;-61
2023/04/23 07:04:10;;;;;;;1.67;1.58;;;;;;;22.19;40.93;99752.09;4543258;28;20036;-60
2023/04/23 07:06:20;;;;;;;1.50;1.40;;;;;;;22.23;44.54;99752.13;4542733;28;20386;-60
2023/04/23 07:08:31;;;;;;;3.70;1.50;;;;;;;22.23;44.66;99749.25;4542675;28;20473;-61
2023/04/23 07:10:41;;;;;;;1.50;1.40;;;;;;;22.19;44.62;99744.31;4543541;28;20397;-60
2023/04/23 07:12:52;;;;;;;1.40;1.30;;;;;;;22.25;44.79;99749.69;4542343;28;20036;-60
2023/04/23 07:15:03;;;;;;;1.73;1.40;;;;;;;22.25;44.85;99750.50;4542089;28;20075;-60
2023/04/23 07:17:13;;;;;;;1.50;1.40;;;;;;;21.97;43.34;99742.47;4542903;28;20044;-60
2023/04/23 07:19:24;;;;;;;2.97;2.78;;;;;;;21.87;41.03;99740.31;4541059;28;20153;-60
2023/04/23 07:21:34;;;;;;;2.90;2.60;;;;;;;21.82;40.21;99737.81;4541182;28;20040;-60
2023/04/23 07:23:45;;;;;;;3.15;2.85;;;;;;;21.80;39.58;99734.50;4542110;28;20094;-60
2023/04/23 07:25:55;;;;;;;2.75;2.55;;;;;;;21.77;39.64;99723.81;4541584;28;20048;-60
2023/04/23 07:28:06;;;;;;;3.30;3.00;;;;;;;21.76;39.57;99729.94;4542323;28;20762;-62
2023/04/23 07:30:16;;;;;;;3.03;2.72;;;;;;;21.75;39.24;99723.41;4542763;28;20072;-60
2023/04/23 07:32:27;;;;;;;3.20;2.90;;;;;;;21.69;39.45;99709.75;4530234;28;20775;-60
2023/04/23 07:34:37;;;;;;;3.35;3.05;;;;;;;21.71;39.59;99716.75;4532602;28;20541;-60
2023/04/23 07:36:48;;;;;;;3.00;2.80;;;;;;;21.70;39.38;99717.97;4528729;28;20025;-60
2023/04/23 07:38:58;;;;;;;2.95;2.72;;;;;;;21.65;39.49;99706.84;4539823;28;20029;-60
2023/04/23 07:41:09;;;;;;;3.08;2.78;;;;;;;21.68;39.77;99719.59;4539545;28;20926;-60
2023/04/23 07:43:20;;;;;;;2.92;2.72;;;;;;;21.65;39.80;99709.72;4539828;28;20043;-60
2023/04/23 07:45:30;;;;;;;2.90;2.67;;;;;;;21.67;40.45;99713.03;4541141;27;20611;-60
2023/04/23 07:47:41;;;;;;;2.80;2.60;;;;;;;21.68;40.08;99711.81;4543320;28;20041;-60
2023/04/23 07:49:51;;;;;;;2.70;2.50;;;;;;;21.67;40.60;99715.91;4535320;28;20064;-61
2023/04/23 07:52:01;;;;;;;2.72;2.33;;;;;;;21.67;40.47;99713.03;4543452;28;20036;-60
2023/04/23 07:54:12;;;;;;;2.50;2.30;;;;;;;21.68;40.33;99714.69;4543270;28;20036;-60
2023/04/23 07:56:23;;;;;;;2.42;2.22;;;;;;;21.68;40.79;99708.94;4543311;28;20037;-60
2023/04/23 07:58:34;;;;;;;2.10;1.90;;;;;;;21.69;40.45;99710.56;4525616;28;20055;-60
2023/04/23 08:00:45;;;;;;;2.00;1.80;;;;;;;21.62;40.49;99693.28;4545402;28;20731;-60
2023/04/23 08:02:55;;;;;;;2.10;1.90;;;;;;;21.69;40.22;99709.75;4533897;28;20048;-60
2023/04/23 08:05:06;;;;;;;2.20;2.00;;;;;;;21.63;39.61;99700.66;4542858;28;20033;-59
2023/04/23 08:07:17;;;;;;;1.80;1.70;;;;;;;21.68;39.44;99708.94;4542501;28;20041;-59
2023/04/23 08:09:27;;;;;;;1.75;1.65;;;;;;;21.68;39.27;99700.31;4543535;28;20048;-60
2023/04/23 08:11:38;;;;;;;1.65;1.55;;;;;;;21.69;39.29;99699.06;4542802;28;20037;-60
2023/04/23 08:13:48;;;;;;;1.63;1.52;;;;;;;21.68;39.13;99697.44;4542253;28;20033;-60
2023/04/23 08:15:59;;;;;;;2.13;1.70;;;;;;;21.67;39.68;99697.84;4542452;28;20127;-60
2023/04/23 08:18:10;;;;;;;1.65;1.55;;;;;;;21.66;40.15;99699.88;4525998;28;20102;-60
2023/04/23 08:20:20;;;;;;;1.67;1.58;;;;;;;21.66;40.17;99699.06;4535447;28;20086;-60
2023/04/23 08:22:31;;;;;;;1.65;1.50;;;;;;;21.68;39.66;99694.56;4544463;28;20119;-60
2023/04/23 08:24:43;;;;;;;1.45;1.35;;;;;;;21.72;39.54;99708.97;4544933;28;20477;-60
2023/04/23 08:26:53;;;;;;;1.70;1.60;;;;;;;21.73;39.15;99702.00;4544917;28;20776;-60
2023/04/23 08:29:04;;;;;;;1.60;1.50;;;;;;;21.72;39.50;99704.03;4534653;28;20025;-60
2023/04/23 08:31:16;;;;;;;1.52;1.42;;;;;;;21.73;39.58;99696.25;4546527;28;20041;-59
2023/04/23 08:33:26;;;;;;;1.60;1.50;;;;;;;21.73;39.79;99694.22;4546485;28;20415;-59
2023/04/23 08:35:37;;;;;;;1.60;1.50;;;;;;;21.74;39.68;99701.59;4545832;28;20048;-60
2023/04/23 08:37:47;;;;;;;1.50;1.40;;;;;;;21.71;39.82;99685.16;4527517;28;20406;-59
2023/04/23 08:39:58;;;;;;;2.17;1.70;;;;;;;21.75;39.53;99690.94;4544849;28;20099;-60
2023/04/23 08:42:31;;;;;;;1.50;1.40;;;;;;;21.74;40.73;99687.22;4543620;28;20429;-60
2023/04/23 08:44:42;;;;;;;1.50;1.40;;;;;;;21.75;40.34;99690.94;4498557;28;20351;-60
2023/04/23 08:46:53;;;;;;;1.67;1.50;;;;;;;21.75;40.16;99696.69;4544153;28;20055;-59
2023/04/23 08:49:07;;;;;;;1.58;1.48;;;;;;;21.74;39.32;99692.97;4544234;28;20043;-60
2023/04/23 08:51:20;;;;;;;1.52;1.40;;;;;;;21.75;39.49;99691.81;4507543;28;20587;-60
2023/04/23 08:53:31;;;;;;;1.60;1.50;;;;;;;21.75;39.71;99685.19;4546078;28;20025;-60
2023/04/23 08:55:42;;;;;;;1.58;1.40;;;;;;;21.61;39.93;99662.91;4535141;28;20045;-61
2023/04/23 08:57:52;;;;;;;1.52;1.42;;;;;;;21.77;40.48;99685.66;4519395;28;20037;-60
2023/04/23 09:00:05;;;;;;;1.70;1.60;;;;;;;21.77;40.08;99688.53;4541443;28;20036;-59
2023/04/23 09:02:16;;;;;;;1.40;1.30;;;;;;;21.74;40.52;99675.75;4525623;28;20119;-59
2023/04/23 09:04:27;;;;;;;1.50;1.40;;;;;;;21.77;40.51;99674.97;4540228;28;20025;-60
2023/04/23 09:06:38;;;;;;;1.90;1.27;;;;;;;21.78;40.61;99672.94;4526244;28;20144;-60
2023/04/23 09:08:48;;;;;;;1.50;1.35;;;;;;;21.76;40.73;99667.59;4535946;28;20524;-60
2023/04/23 09:11:01;;;;;;;1.40;1.30;;;;;;;21.78;41.49;99668.03;4544806;28;20592;-60
2023/04/23 09:13:12;;;;;;;1.40;1.30;;;;;;;21.78;41.36;99673.78;4527248;28;20022;-60
2023/04/23 09:15:22;;;;;;;1.40;1.30;;;;;;;21.78;41.05;99673.78;4524242;28;20046;-60
2023/04/23 09:17:34;;;;;;;1.40;1.30;;;;;;;21.78;40.80;99673.78;4543260;28;20392;-60
2023/04/23 09:19:45;;;;;;;1.30;1.20;;;;;;;21.72;40.13;99648.66;4544036;28;20025;-60
2023/04/23 09:21:57;;;;;;;1.42;1.13;;;;;;;21.78;40.32;99656.53;4543499;28;20032;-60
2023/04/23 09:24:13;;;;;;;1.45;1.35;;;;;;;21.78;40.63;99661.44;4545337;28;20980;-60
2023/04/23 09:26:24;;;;;;;1.42;1.30;;;;;;;21.80;40.32;99665.56;4542600;28;20037;-60
2023/04/23 09:28:35;;;;;;;1.52;1.42;;;;;;;21.78;40.71;99656.53;4542154;28;20037;-60
2023/04/23 09:30:47;;;;;;;1.42;1.10;;;;;;;21.81;40.77;99655.75;4547484;28;20043;-60
2023/04/23 09:32:58;;;;;;;1.20;1.10;;;;;;;21.81;41.17;99661.47;4543964;28;20041;-60
2023/04/23 09:35:14;;;;;;;1.30;1.20;;;;;;;21.81;40.91;99664.34;4542970;28;20056;-60
2023/04/23 09:38:15;;;;;;;1.30;1.00;;;;;;;21.83;41.12;99661.09;4542851;28;20126;-59
2023/04/23 09:40:28;;;;;;;0.90;0.90;;;;;;;21.82;41.58;99663.13;4541733;28;20029;-60
2023/04/23 09:42:38;;;;;;;1.33;1.10;;;;;;;21.80;41.49;99656.94;4543532;28;20036;-59
2023/04/23 09:45:03;;;;;;;1.42;1.30;;;;;;;21.83;40.97;99664.78;4542779;28;20106;-59
2023/04/23 09:47:14;;;;;;;1.20;1.10;;;;;;;21.82;40.54;99645.88;4525026;28;20045;-60
2023/04/23 09:49:25;;;;;;;1.15;1.05;;;;;;;21.81;40.77;99646.28;4531616;28;20055;-60
2023/04/23 09:51:48;;;;;;;1.20;1.10;;;;;;;21.83;41.96;99647.56;4543642;28;20567;-60
2023/04/23 09:54:01;;;;;;;1.40;1.23;;;;;;;21.84;41.87;99645.50;4525403;28;20033;-59
2023/04/23 09:56:12;;;;;;;1.38;1.27;;;;;;;21.83;42.05;99653.31;4541943;28;20107;-59
2023/04/23 09:58:23;;;;;;;1.23;1.13;;;;;;;21.80;41.44;99636.84;4542048;28;20098;-60
2023/04/23 10:00:36;;;;;;;1.02;0.93;;;;;;;21.84;41.46;99636.88;4542703;28;20642;-60
2023/04/23 10:02:48;;;;;;;1.30;1.20;;;;;;;21.84;42.00;99640.56;4542461;28;20036;-59
2023/04/23 10:04:58;;;;;;;1.40;0.95;;;;;;;21.85;41.04;99645.09;4543092;28;20773;-60
2023/04/23 10:07:12;;;;;;;1.30;0.90;;;;;;;21.82;40.83;99624.94;4542233;28;20638;-59
2023/04/23 10:09:24;;;;;;;0.93;0.90;;;;;;;21.85;40.60;99633.59;4543233;28;20040;-61
2023/04/23 10:11:36;;;;;;;0.88;0.88;;;;;;;21.86;40.71;99622.94;4544084;28;20044;-59
2023/04/23 10:13:46;;;;;;;0.70;0.70;;;;;;;21.78;40.07;99616.31;4543782;28;20032;-60
2023/04/23 10:15:58;;;;;;;0.80;0.80;;;;;;;21.86;40.08;99629.53;4523087;28;20047;-59
2023/04/23 10:18:10;;;;;;;0.95;0.80;;;;;;;21.85;39.88;99624.19;4523027;28;20037;-59
2023/04/23 10:20:24;;;;;;;0.73;0.73;;;;;;;21.86;39.67;99629.53;4543918;28;20150;-60